Time;durP1;ratioP1;P1;durP2;ratioP2;P2;SDS_P1;SDS_P2;PMS_P1;PMS_P2;Temp;Humidity;BMP_temperature;BMP_pressure;BME280_temperature;BME280_humidity;BME280_pressure;Samples;Min_cycle;Max_cycle;Signal;HPM_P1;HPM_P2
2022/06/19 00:01:26;;;;;;;13.20;2.20;;;15.10;99.90;;;;;;5093409;28;20667;-75
2022/06/19 00:03:55;;;;;;;11.77;2.30;;;15.00;99.90;;;;;;5093756;28;20373;-75
2022/06/19 00:06:22;;;;;;;11.93;2.17;;;15.10;99.90;;;;;;5075602;28;20088;-75
2022/06/19 00:08:48;;;;;;;9.60;2.10;;;15.10;99.90;;;;;;5093157;28;20277;-75
2022/06/19 00:11:18;;;;;;;10.60;2.47;;;15.00;99.90;;;;;;5093567;28;20300;-75
2022/06/19 00:13:45;;;;;;;10.67;2.30;;;15.00;99.90;;;;;;5093225;28;20282;-75
2022/06/19 00:16:11;;;;;;;11.03;2.43;;;15.00;99.90;;;;;;5093077;28;20356;-75
2022/06/19 00:18:38;;;;;;;11.60;2.63;;;15.00;99.90;;;;;;5093106;28;20407;-75
2022/06/19 00:21:07;;;;;;;15.37;2.47;;;15.00;99.90;;;;;;5075327;28;20052;-75
2022/06/19 00:23:32;;;;;;;15.83;2.67;;;15.00;99.90;;;;;;5093012;28;20302;-76
2022/06/19 00:25:58;;;;;;;12.43;3.03;;;15.00;99.90;;;;;;5093314;28;20603;-75
2022/06/19 00:28:24;;;;;;;12.40;2.60;;;15.00;99.90;;;;;;5093389;28;20048;-75
2022/06/19 00:30:50;;;;;;;13.50;2.20;;;15.00;99.90;;;;;;5093073;28;20048;-75
2022/06/19 00:33:15;;;;;;;12.43;2.40;;;15.00;99.90;;;;;;5093216;28;20047;-75
2022/06/19 00:35:41;;;;;;;13.23;2.80;;;15.10;99.90;;;;;;5092883;28;20044;-75
2022/06/19 00:38:08;;;;;;;12.37;2.40;;;15.00;99.90;;;;;;5093174;28;20055;-75
2022/06/19 00:40:34;;;;;;;11.37;2.60;;;15.10;99.90;;;;;;5075120;28;20282;-75
2022/06/19 00:43:00;;;;;;;11.90;2.47;;;15.20;99.90;;;;;;5093049;28;20301;-75
2022/06/19 00:45:30;;;;;;;11.80;2.37;;;15.10;99.90;;;;;;5093025;28;20293;-75
2022/06/19 00:47:57;;;;;;;14.00;2.50;;;14.80;99.90;;;;;;5093012;28;20297;-75
2022/06/19 00:50:30;;;;;;;11.70;2.50;;;15.20;99.90;;;;;;5092659;28;20595;-75
2022/06/19 00:52:56;;;;;;;10.87;2.67;;;15.20;99.90;;;;;;5093129;28;20288;-75
2022/06/19 00:55:32;;;;;;;12.30;2.63;;;15.20;99.90;;;;;;5092986;28;20672;-75
2022/06/19 00:58:04;;;;;;;11.63;2.33;;;15.40;99.90;;;;;;5075456;28;20282;-75
2022/06/19 01:00:31;;;;;;;12.50;2.93;;;15.40;99.90;;;;;;5092935;28;20277;-75
2022/06/19 01:03:03;;;;;;;12.70;2.23;;;15.40;99.90;;;;;;5093008;28;20294;-75
2022/06/19 01:05:30;;;;;;;14.10;3.03;;;15.40;99.90;;;;;;5092706;28;20280;-75
2022/06/19 01:08:00;;;;;;;18.60;3.00;;;15.50;99.90;;;;;;5093097;28;20289;-75
2022/06/19 01:10:26;;;;;;;17.77;2.77;;;15.60;99.90;;;;;;5092821;28;20331;-75
2022/06/19 01:12:52;;;;;;;14.67;3.53;;;15.60;99.90;;;;;;5092214;28;20790;-75
2022/06/19 01:15:23;;;;;;;13.17;2.47;;;15.60;99.90;;;;;;5092848;28;20274;-75
2022/06/19 01:17:56;;;;;;;14.63;3.43;;;15.60;99.90;;;;;;5092217;28;20630;-75
2022/06/19 01:20:23;;;;;;;14.23;2.93;;;15.60;99.90;;;;;;5092801;28;20753;-75
2022/06/19 01:23:08;;;;;;;19.07;3.10;;;15.70;99.90;;;;;;5092302;28;20324;-75
2022/06/19 01:25:37;;;;;;;16.10;2.83;;;15.50;99.90;;;;;;5092427;28;20286;-75
2022/06/19 01:31:01;;;;;;;17.27;2.97;;;15.50;99.90;;;;;;5096961;28;20657;-75
2022/06/19 01:33:35;;;;;;;18.00;3.20;;;15.50;99.90;;;;;;5096619;28;20595;-75
2022/06/19 01:36:03;;;;;;;14.50;3.03;;;15.50;99.90;;;;;;5078822;28;20282;-75
2022/06/19 01:38:32;;;;;;;18.07;3.40;;;15.50;99.90;;;;;;5096556;28;20357;-75
2022/06/19 01:41:04;;;;;;;18.57;3.50;;;15.50;99.90;;;;;;5096746;28;20388;-76
2022/06/19 01:43:30;;;;;;;16.83;3.67;;;15.30;99.90;;;;;;5096453;28;20388;-75
2022/06/19 01:45:56;;;;;;;17.87;3.50;;;15.30;99.90;;;;;;5095977;28;20361;-75
2022/06/19 01:48:27;;;;;;;17.43;4.10;;;15.30;99.90;;;;;;5096313;28;20074;-75
2022/06/19 01:50:55;;;;;;;16.93;3.00;;;15.20;99.90;;;;;;5096319;28;20281;-75
2022/06/19 01:53:49;;;;;;;17.67;3.10;;;15.20;99.90;;;;;;5096360;28;20281;-75
2022/06/19 01:56:15;;;;;;;23.23;3.60;;;15.30;99.90;;;;;;5096370;28;20278;-75
2022/06/19 01:58:44;;;;;;;19.13;3.43;;;15.20;99.90;;;;;;5095898;28;20384;-75
2022/06/19 02:01:10;;;;;;;18.83;3.53;;;15.20;99.90;;;;;;5096001;28;20771;-76
2022/06/19 02:03:44;;;;;;;16.73;3.13;;;15.20;99.90;;;;;;5095639;28;20754;-75
2022/06/19 02:06:14;;;;;;;17.75;3.63;;;15.10;99.90;;;;;;5096212;28;20278;-75
2022/06/19 02:08:41;;;;;;;21.13;3.87;;;15.10;99.90;;;;;;5095633;28;20434;-75
2022/06/19 02:11:11;;;;;;;14.53;2.87;;;15.10;99.90;;;;;;5095775;28;20278;-75
2022/06/19 02:13:38;;;;;;;16.40;3.90;;;15.10;99.90;;;;;;5095516;28;20278;-75
2022/06/19 02:16:15;;;;;;;13.73;3.07;;;15.10;99.90;;;;;;5077870;28;20286;-75
2022/06/19 02:18:45;;;;;;;14.33;2.93;;;15.10;99.90;;;;;;5095564;28;20285;-75
2022/06/19 02:21:18;;;;;;;17.10;3.10;;;15.10;99.90;;;;;;5077514;28;20286;-76
2022/06/19 02:23:45;;;;;;;16.33;2.40;;;15.00;99.90;;;;;;5095362;28;20350;-75
2022/06/19 02:26:11;;;;;;;18.13;3.57;;;15.10;99.90;;;;;;5095507;28;20285;-76
2022/06/19 02:28:44;;;;;;;16.07;3.53;;;15.10;99.90;;;;;;5095189;28;20282;-75
2022/06/19 02:31:10;;;;;;;12.93;2.87;;;15.00;99.90;;;;;;5095780;28;20355;-75
2022/06/19 02:33:46;;;;;;;14.10;2.70;;;15.00;99.90;;;;;;5095417;28;20266;-75
2022/06/19 02:36:30;;;;;;;14.50;2.87;;;15.00;99.90;;;;;;5095718;28;20282;-75
2022/06/19 02:38:59;;;;;;;13.30;2.70;;;14.90;99.90;;;;;;5076644;28;20694;-75
2022/06/19 02:41:30;;;;;;;12.50;2.93;;;15.00;99.90;;;;;;5095266;28;20285;-75
2022/06/19 02:43:56;;;;;;;17.53;3.53;;;15.10;99.90;;;;;;5095102;28;20302;-75
2022/06/19 02:46:22;;;;;;;16.93;3.20;;;15.10;99.90;;;;;;5077363;28;20282;-75
2022/06/19 02:48:47;;;;;;;13.53;2.60;;;15.10;99.90;;;;;;5094846;28;20059;-75
2022/06/19 02:51:13;;;;;;;18.43;3.60;;;15.10;99.90;;;;;;5095122;28;20048;-76
2022/06/19 02:53:39;;;;;;;12.70;2.97;;;15.10;99.90;;;;;;5095038;28;20076;-75
2022/06/19 02:56:04;;;;;;;17.60;2.97;;;15.00;99.90;;;;;;5076823;28;20472;-76
2022/06/19 02:58:30;;;;;;;15.17;2.57;;;15.10;99.90;;;;;;5094308;28;20036;-75
2022/06/19 03:00:56;;;;;;;14.70;3.50;;;15.00;99.90;;;;;;5094601;28;20105;-76
2022/06/19 03:03:35;;;;;;;18.83;3.50;;;15.00;99.90;;;;;;5076677;28;20438;-75
2022/06/19 03:06:01;;;;;;;13.33;2.63;;;15.00;99.90;;;;;;5094613;28;20044;-76
2022/06/19 03:08:27;;;;;;;16.90;3.40;;;15.00;99.90;;;;;;5094706;28;20321;-75
2022/06/19 03:10:53;;;;;;;20.27;4.63;;;14.90;99.90;;;;;;5094369;28;20325;-75
2022/06/19 03:13:20;;;;;;;14.90;3.30;;;14.90;99.90;;;;;;5094553;28;20036;-75
2022/06/19 03:15:46;;;;;;;14.90;3.47;;;14.90;99.90;;;;;;5094374;28;20052;-76
2022/06/19 03:18:11;;;;;;;16.10;2.70;;;14.80;99.90;;;;;;5094553;28;20282;-75
2022/06/19 03:20:37;;;;;;;19.97;3.33;;;14.80;99.90;;;;;;5094555;28;20388;-73
2022/06/19 03:23:03;;;;;;;17.60;2.90;;;14.80;99.90;;;;;;5094137;28;20043;-72
2022/06/19 03:25:29;;;;;;;15.60;3.60;;;14.60;99.90;;;;;;5094455;28;20052;-72
2022/06/19 03:27:54;;;;;;;19.67;4.10;;;14.50;99.90;;;;;;5059873;28;20059;-72
2022/06/19 03:30:21;;;;;;;26.83;4.10;;;14.40;99.90;;;;;;5094279;28;20610;-73
2022/06/19 03:32:47;;;;;;;19.30;3.57;;;14.20;99.90;;;;;;5076289;28;20480;-76
2022/06/19 03:35:14;;;;;;;20.43;3.27;;;13.90;99.90;;;;;;5094237;28;20815;-76
2022/06/19 03:37:40;;;;;;;22.47;3.37;;;13.60;99.90;;;;;;5094000;28;20343;-76
2022/06/19 03:40:07;;;;;;;19.50;3.63;;;13.40;99.90;;;;;;5093896;28;20278;-77
2022/06/19 03:42:33;;;;;;;17.50;2.67;;;13.30;99.90;;;;;;5093983;28;20095;-77
2022/06/19 03:44:59;;;;;;;25.43;4.57;;;13.20;99.90;;;;;;5093821;28;20314;-77
2022/06/19 03:47:26;;;;;;;25.60;3.23;;;13.20;99.90;;;;;;5076142;28;20345;-78
2022/06/19 03:49:53;;;;;;;17.07;2.70;;;13.20;99.90;;;;;;5093069;28;20458;-77
2022/06/19 03:52:19;;;;;;;24.17;4.40;;;13.20;99.90;;;;;;5093919;28;20286;-78
2022/06/19 03:54:44;;;;;;;23.13;3.73;;;13.20;99.90;;;;;;5093893;28;20280;-78
2022/06/19 03:57:14;;;;;;;26.93;3.97;;;13.20;99.90;;;;;;5093977;28;20052;-79
2022/06/19 03:59:40;;;;;;;15.07;3.17;;;;;;;;;;5093645;28;20039;-78
2022/06/19 04:02:08;;;;;;;21.17;3.67;;;13.00;99.90;;;;;;5093552;28;20681;-77
2022/06/19 04:04:35;;;;;;;21.20;3.83;;;;;;;;;;5093645;28;20302;-77
2022/06/19 04:07:01;;;;;;;18.17;3.43;;;;;;;;;;5093486;28;20282;-77
2022/06/19 04:09:27;;;;;;;25.10;4.30;;;13.00;99.90;;;;;;5093616;28;20761;-77
2022/06/19 04:11:53;;;;;;;18.40;3.47;;;12.90;99.90;;;;;;5093424;28;20274;-77
2022/06/19 04:14:18;;;;;;;19.27;3.47;;;12.90;99.90;;;;;;5093795;28;20506;-78
2022/06/19 04:16:45;;;;;;;19.67;3.53;;;;;;;;;;5093578;28;20391;-78
2022/06/19 04:19:11;;;;;;;22.63;3.80;;;13.00;99.90;;;;;;5093347;28;20048;-78
2022/06/19 04:21:41;;;;;;;24.60;3.40;;;;;;;;;;5093449;28;20758;-79
2022/06/19 04:24:07;;;;;;;21.63;3.53;;;;;;;;;;5093201;28;20297;-81
2022/06/19 04:26:35;;;;;;;27.97;4.40;;;;;;;;;;5093336;28;20766;-81
2022/06/19 04:29:02;;;;;;;30.33;4.47;;;12.60;99.90;;;;;;5093092;28;20278;-81
2022/06/19 04:31:28;;;;;;;27.83;3.90;;;12.70;99.90;;;;;;5093463;28;20623;-80
2022/06/19 04:33:53;;;;;;;23.10;3.53;;;12.80;99.90;;;;;;5075280;28;20286;-79
2022/06/19 04:36:22;;;;;;;20.13;3.57;;;12.80;99.90;;;;;;5093554;28;20054;-80
2022/06/19 04:38:50;;;;;;;22.70;2.93;;;12.80;99.90;;;;;;5093210;28;20054;-79
2022/06/19 04:41:19;;;;;;;20.67;3.17;;;12.70;99.90;;;;;;5092872;28;20887;-79
2022/06/19 04:43:45;;;;;;;20.63;3.20;;;12.80;99.90;;;;;;5093182;28;20305;-80
2022/06/19 04:46:11;;;;;;;20.10;2.93;;;12.80;99.90;;;;;;5092894;28;20462;-79
2022/06/19 04:48:38;;;;;;;21.53;3.67;;;12.80;99.90;;;;;;5093143;28;20056;-79
2022/06/19 04:51:04;;;;;;;22.60;3.10;;;12.80;99.90;;;;;;5075039;28;20411;-79
2022/06/19 04:53:32;;;;;;;20.67;3.00;;;12.80;99.90;;;;;;5093053;28;20313;-79
2022/06/19 04:55:58;;;;;;;18.47;2.87;;;12.80;99.90;;;;;;5092800;28;20284;-78
2022/06/19 04:58:24;;;;;;;12.93;2.60;;;12.70;99.90;;;;;;5093250;28;20282;-79
2022/06/19 05:00:52;;;;;;;19.37;3.00;;;12.70;99.90;;;;;;5093330;28;20283;-79
2022/06/19 05:03:22;;;;;;;14.53;2.27;;;12.60;99.90;;;;;;5097245;28;20044;-78
2022/06/19 05:05:48;;;;;;;19.17;3.80;;;12.50;99.90;;;;;;5079529;28;20369;-79
2022/06/19 05:08:14;;;;;;;9.97;2.30;;;12.50;99.90;;;;;;5096848;28;20423;-78
2022/06/19 05:10:41;;;;;;;18.63;3.00;;;12.50;99.90;;;;;;5096860;28;20500;-78
2022/06/19 05:13:16;;;;;;;14.77;2.60;;;12.50;99.90;;;;;;5096769;28;20281;-78
2022/06/19 05:15:43;;;;;;;12.97;2.40;;;12.40;99.90;;;;;;5097136;28;20288;-78
2022/06/19 05:18:09;;;;;;;18.80;2.97;;;12.40;99.90;;;;;;5096777;28;20278;-78
2022/06/19 05:20:36;;;;;;;12.47;2.07;;;12.40;99.90;;;;;;5096941;28;20374;-78
2022/06/19 05:23:02;;;;;;;16.90;2.67;;;12.30;99.90;;;;;;5078599;28;20297;-78
2022/06/19 05:25:28;;;;;;;15.23;2.63;;;12.40;99.90;;;;;;5097081;28;20274;-78
2022/06/19 05:27:54;;;;;;;17.20;2.80;;;12.30;99.90;;;;;;5096788;28;20050;-78
2022/06/19 05:30:19;;;;;;;14.37;2.10;;;12.30;99.90;;;;;;5096472;28;20136;-78
2022/06/19 05:32:45;;;;;;;18.03;3.20;;;12.30;99.90;;;;;;5096863;28;20048;-78
2022/06/19 05:35:11;;;;;;;17.93;2.70;;;12.40;99.90;;;;;;5096454;28;20534;-78
2022/06/19 05:37:36;;;;;;;17.00;2.40;;;12.40;99.90;;;;;;5061689;28;20484;-78
2022/06/19 05:40:03;;;;;;;19.47;3.30;;;12.40;99.90;;;;;;5096283;28;20055;-78
2022/06/19 05:42:28;;;;;;;21.57;4.40;;;12.40;99.90;;;;;;5096214;28;20495;-78
2022/06/19 05:44:54;;;;;;;14.63;2.63;;;12.40;99.90;;;;;;5096360;28;20345;-78
2022/06/19 05:47:20;;;;;;;15.37;2.77;;;12.40;99.90;;;;;;5061726;28;20044;-78
2022/06/19 05:49:45;;;;;;;15.00;3.00;;;12.40;99.90;;;;;;5096160;28;20048;-78
2022/06/19 05:52:24;;;;;;;26.40;3.77;;;12.50;99.90;;;;;;5078083;28;20052;-78
2022/06/19 05:54:50;;;;;;;19.93;3.00;;;12.50;99.90;;;;;;5096438;28;20384;-78
2022/06/19 05:57:16;;;;;;;18.03;3.17;;;12.50;99.90;;;;;;5095933;28;20357;-79
2022/06/19 05:59:42;;;;;;;15.27;2.70;;;12.50;99.90;;;;;;5096239;28;20385;-78
2022/06/19 06:02:12;;;;;;;21.70;3.87;;;12.50;99.90;;;;;;5078062;28;20040;-78
2022/06/19 06:04:38;;;;;;;14.67;2.60;;;12.50;99.90;;;;;;5096223;28;20040;-78
2022/06/19 06:07:06;;;;;;;13.83;2.63;;;12.50;99.90;;;;;;5095748;28;20282;-78
2022/06/19 06:09:33;;;;;;;13.67;2.43;;;12.50;99.90;;;;;;5078437;28;20483;-78
2022/06/19 06:11:59;;;;;;;11.57;2.10;;;12.60;99.90;;;;;;5078092;28;20626;-78
2022/06/19 06:14:24;;;;;;;15.80;2.50;;;12.50;99.90;;;;;;5076526;28;20286;-78
2022/06/19 06:16:50;;;;;;;10.33;2.03;;;12.60;99.90;;;;;;5095799;28;20048;-78
2022/06/19 06:19:16;;;;;;;15.90;2.90;;;12.60;99.90;;;;;;5077545;28;20134;-78
2022/06/19 06:21:42;;;;;;;13.97;2.40;;;12.60;99.90;;;;;;5095882;28;20131;-78
2022/06/19 06:24:08;;;;;;;13.37;3.23;;;12.60;99.90;;;;;;5077346;28;20472;-78
2022/06/19 06:26:34;;;;;;;14.33;3.10;;;12.60;99.90;;;;;;5095675;28;20044;-78
2022/06/19 06:29:01;;;;;;;18.70;2.27;;;12.60;99.90;;;;;;5077724;28;20648;-78
2022/06/19 06:31:27;;;;;;;18.73;2.57;;;12.60;99.90;;;;;;5095621;28;20097;-78
2022/06/19 06:33:53;;;;;;;18.80;2.97;;;12.60;99.90;;;;;;5077496;28;20274;-78
2022/06/19 06:36:18;;;;;;;15.43;2.77;;;12.70;99.90;;;;;;5094837;28;20361;-78
2022/06/19 06:38:45;;;;;;;16.67;2.83;;;12.70;99.90;;;;;;5060838;28;20097;-79
2022/06/19 06:41:12;;;;;;;16.90;2.70;;;12.70;99.90;;;;;;5077361;28;20055;-79
2022/06/19 06:43:41;;;;;;;16.00;2.43;;;12.80;99.90;;;;;;5095524;28;20355;-78
2022/06/19 06:46:10;;;;;;;9.57;1.97;;;12.80;99.90;;;;;;5094957;28;20282;-78
2022/06/19 06:48:36;;;;;;;17.03;2.43;;;12.90;99.90;;;;;;5094869;28;20773;-78
2022/06/19 06:51:10;;;;;;;15.23;2.63;;;12.90;99.90;;;;;;5077501;28;20290;-78
2022/06/19 06:53:35;;;;;;;18.53;2.73;;;13.00;99.90;;;;;;5095178;28;20698;-78
2022/06/19 06:56:01;;;;;;;15.23;2.53;;;13.00;99.90;;;;;;5094985;28;20305;-78
2022/06/19 06:58:27;;;;;;;17.63;3.47;;;13.00;99.90;;;;;;5094479;28;20511;-78
2022/06/19 07:00:54;;;;;;;15.10;2.50;;;13.00;99.90;;;;;;5094994;28;20282;-78
2022/06/19 07:03:20;;;;;;;15.50;2.93;;;13.00;99.90;;;;;;5059955;28;20658;-78
2022/06/19 07:05:46;;;;;;;16.30;3.17;;;13.00;99.90;;;;;;5094857;28;20282;-78
2022/06/19 07:08:12;;;;;;;16.63;2.83;;;13.00;99.90;;;;;;5094528;28;20595;-78
2022/06/19 07:10:38;;;;;;;14.10;2.73;;;13.00;99.90;;;;;;5094810;28;20059;-79
2022/06/19 07:13:04;;;;;;;15.70;3.03;;;13.10;99.90;;;;;;5094766;28;20036;-78
2022/06/19 07:15:30;;;;;;;16.20;2.07;;;13.20;99.90;;;;;;5094748;28;20277;-78
2022/06/19 07:17:56;;;;;;;18.53;2.57;;;13.30;99.90;;;;;;5076798;28;20305;-80
2022/06/19 07:20:22;;;;;;;13.90;2.63;;;13.40;99.90;;;;;;5094617;28;20047;-82
2022/06/19 07:22:48;;;;;;;14.77;2.60;;;;;;;;;;5094528;28;20044;-82
2022/06/19 07:25:18;;;;;;;14.93;2.57;;;;;;;;;;5094135;28;20400;-81
2022/06/19 07:27:45;;;;;;;19.87;2.70;;;;;;;;;;5094403;28;20769;-82
2022/06/19 07:30:15;;;;;;;16.03;3.00;;;;;;;;;;5094472;28;20766;-82
2022/06/19 07:32:41;;;;;;;16.03;3.03;;;;;;;;;;5094459;28;20278;-82
2022/06/19 07:35:07;;;;;;;16.10;3.00;;;;;;;;;;5094314;28;20282;-83
2022/06/19 07:37:33;;;;;;;15.73;2.60;;;;;;;;;;5094172;28;20282;-82
2022/06/19 07:39:59;;;;;;;15.73;2.77;;;13.60;99.90;;;;;;5094300;28;20318;-82
2022/06/19 07:42:24;;;;;;;11.63;2.20;;;13.70;99.90;;;;;;5092370;28;20322;-81
2022/06/19 07:44:50;;;;;;;11.83;2.20;;;13.70;99.90;;;;;;5076245;28;20078;-82
2022/06/19 07:50:09;;;;;;;12.40;2.47;;;13.70;99.90;;;;;;5094237;28;20158;-82
2022/06/19 07:52:36;;;;;;;14.98;3.00;;;13.70;99.90;;;;;;5094078;28;20315;-82
2022/06/19 07:55:03;;;;;;;13.20;2.13;;;13.70;99.90;;;;;;5093944;28;20040;-82
2022/06/19 07:57:29;;;;;;;11.57;2.37;;;13.70;99.90;;;;;;5093615;28;20274;-81
2022/06/19 07:59:55;;;;;;;11.30;2.63;;;13.70;99.90;;;;;;5094005;28;20274;-82
2022/06/19 08:02:20;;;;;;;8.40;1.77;;;13.80;99.90;;;;;;5075616;28;20048;-81
2022/06/19 08:04:46;;;;;;;14.40;2.67;;;13.80;99.90;;;;;;5093667;28;20131;-82
2022/06/19 08:07:14;;;;;;;10.87;2.73;;;13.80;99.90;;;;;;5075424;28;20076;-80
2022/06/19 08:09:41;;;;;;;15.50;2.93;;;13.90;99.90;;;;;;5093711;28;20040;-82
2022/06/19 08:12:07;;;;;;;8.30;2.10;;;;;;;;;;5093622;28;20365;-82
2022/06/19 08:14:33;;;;;;;11.90;2.33;;;;;;;;;;5075434;28;20630;-83
2022/06/19 08:16:59;;;;;;;14.73;2.87;;;;;;;;;;5093615;28;20692;-83
2022/06/19 08:19:26;;;;;;;13.13;3.00;;;;;;;;;;5058816;28;20286;-83
2022/06/19 08:21:52;;;;;;;15.40;2.53;;;;;;;;;;5093644;28;20576;-84
2022/06/19 08:24:18;;;;;;;12.23;2.43;;;;;;;;;;5093110;28;20293;-83
2022/06/19 08:26:44;;;;;;;9.90;2.50;;;;;;;;;;5093753;28;20278;-83
2022/06/19 08:29:10;;;;;;;11.60;2.43;;;;;;;;;;5093343;28;20282;-83
2022/06/19 08:31:37;;;;;;;11.03;2.33;;;;;;;;;;5093008;28;20274;-84
2022/06/19 08:34:03;;;;;;;13.67;2.57;;;;;;;;;;5058760;28;20279;-83
2022/06/19 08:36:31;;;;;;;8.60;2.53;;;;;;;;;;5092475;28;20320;-84
2022/06/19 08:39:01;;;;;;;9.73;1.90;;;;;;;;;;5075194;28;20665;-82
2022/06/19 08:41:27;;;;;;;8.07;1.97;;;;;;;;;;5093869;28;20316;-81
2022/06/19 08:44:09;;;;;;;11.77;1.67;;;;;;;;;;5093251;28;20309;-84
2022/06/19 08:46:53;;;;;;;5.93;1.57;;;;;;;;;;5093031;28;20697;-84
2022/06/19 08:49:19;;;;;;;13.03;2.10;;;;;;;;;;5096976;28;20290;-79
2022/06/19 08:51:45;;;;;;;6.80;1.77;;;;;;;;;;5102304;28;20368;-79
2022/06/19 08:54:34;;;;;;;9.13;1.50;;;;;;;;;;5086037;28;20385;-80
2022/06/19 08:57:00;;;;;;;6.47;1.50;;;;;;;;;;5102347;28;20835;-80
2022/06/19 08:59:32;;;;;;;11.13;2.23;;;14.70;99.90;;;;;;5102457;28;20285;-81
2022/06/19 09:02:25;;;;;;;10.87;2.00;;;14.70;99.90;;;;;;5103834;28;20281;-81
2022/06/19 09:07:56;;;;;;;8.13;1.53;;;14.80;99.90;;;;;;5095227;28;20287;-84
2022/06/19 09:10:27;;;;;;;9.82;2.20;;;;;;;;;;5102159;28;20415;-84
2022/06/19 09:13:37;;;;;;;12.67;2.13;;;15.00;99.90;;;;;;5101499;28;20105;-84
2022/06/19 09:16:07;;;;;;;10.10;1.60;;;15.00;99.90;;;;;;5102466;28;20285;-84
2022/06/19 09:18:36;;;;;;;9.70;2.00;;;;;;;;;;5083216;28;20290;-83
2022/06/19 09:21:19;;;;;;;9.93;1.70;;;15.30;99.90;;;;;;5084946;28;20286;-84
2022/06/19 09:24:13;;;;;;;9.93;2.00;;;15.30;99.90;;;;;;5084276;28;20297;-83
2022/06/19 09:26:46;;;;;;;9.70;1.73;;;15.40;99.90;;;;;;5101184;28;20278;-83
2022/06/19 09:29:19;;;;;;;7.23;1.70;;;15.40;99.90;;;;;;5101890;28;20285;-84
2022/06/19 09:31:56;;;;;;;9.77;2.23;;;15.40;99.90;;;;;;5066565;28;20286;-84
2022/06/19 09:34:27;;;;;;;8.53;1.83;;;;;;;;;;5083315;28;20651;-82
2022/06/19 09:36:58;;;;;;;8.70;1.87;;;;;;;;;;5083902;28;20339;-83
2022/06/19 09:39:32;;;;;;;6.77;1.83;;;15.60;99.90;;;;;;5101235;28;20334;-83
2022/06/19 09:42:06;;;;;;;9.25;1.65;;;;;;;;;;5084428;28;20286;-77
2022/06/19 09:44:38;;;;;;;9.27;1.50;;;;;;;;;;5101240;28;20044;-77
2022/06/19 09:47:14;;;;;;;11.03;2.17;;;;;;;;;;5101381;28;20281;-71
2022/06/19 09:49:43;;;;;;;5.20;1.37;;;;;;;;;;5105180;28;20750;-71
2022/06/19 09:52:19;;;;;;;6.73;1.47;;;;;;;;;;5104990;28;20357;-71
2022/06/19 09:54:51;;;;;;;8.97;2.00;;;;;;;;;;5104662;28;20282;-71
2022/06/19 09:57:26;;;;;;;8.60;1.57;;;;;;;;;;5087812;28;20286;-72
2022/06/19 09:59:55;;;;;;;8.83;1.60;;;;;;;;;;5105233;28;20294;-76
2022/06/19 10:02:41;;;;;;;5.37;1.43;;;;;;;;;;5087316;28;20281;-82
2022/06/19 10:05:16;;;;;;;5.97;1.30;;;;;;;;;;5096210;28;20351;-81
2022/06/19 10:07:42;;;;;;;;;;;;;;;;;;5096133;28;20296;-81
2022/06/19 10:10:14;;;;;;;7.47;1.87;;;;;;;;;;5095896;28;19920;-81
2022/06/19 10:12:42;;;;;;;5.00;1.40;;;;;;;;;;5095639;28;20126;-81
2022/06/19 10:15:20;;;;;;;6.50;1.80;;;;;;;;;;5095915;28;20278;-82
2022/06/19 10:17:49;;;;;;;9.43;1.57;;;;;;;;;;5077763;28;20991;-82
2022/06/19 10:20:17;;;;;;;5.00;1.30;;;;;;;;;;5095688;28;20316;-82
2022/06/19 10:22:46;;;;;;;5.53;1.53;;;;;;;;;;5095480;28;20278;-81
2022/06/19 10:25:31;;;;;;;3.87;1.10;;;;;;;;;;5077452;28;20318;-82
2022/06/19 10:28:10;;;;;;;4.43;1.23;;;;;;;;;;5095627;28;20279;-82
2022/06/19 10:30:47;;;;;;;3.63;1.10;;;16.70;99.90;;;;;;5077420;28;20052;-81
2022/06/19 10:33:16;;;;;;;3.97;1.60;;;16.70;99.90;;;;;;5095375;28;20503;-82
2022/06/19 10:35:59;;;;;;;6.67;1.30;;;16.90;99.90;;;;;;5077182;28;20361;-81
2022/06/19 10:39:03;;;;;;;4.07;1.20;;;17.10;99.90;;;;;;5095784;28;20454;-82
2022/06/19 10:42:01;;;;;;;8.63;2.07;;;17.10;99.90;;;;;;5027793;28;20063;-81
2022/06/19 10:45:04;;;;;;;4.97;1.33;;;17.00;99.90;;;;;;5077326;28;20052;-82
2022/06/19 10:47:30;;;;;;;7.33;1.73;;;16.80;99.90;;;;;;5077037;28;20125;-82
2022/06/19 10:50:10;;;;;;;5.67;1.50;;;16.80;99.90;;;;;;5095171;28;20156;-82
2022/06/19 10:53:10;;;;;;;7.47;1.80;;;16.70;99.90;;;;;;5094812;28;20058;-82
2022/06/19 10:56:01;;;;;;;8.20;1.90;;;16.60;99.90;;;;;;5077082;28;20060;-81
2022/06/19 10:58:31;;;;;;;7.30;1.40;;;16.60;99.90;;;;;;5083681;28;20095;-78
2022/06/19 11:01:03;;;;;;;8.90;1.70;;;16.50;99.90;;;;;;5094522;28;20297;-77
2022/06/19 11:04:08;;;;;;;7.70;1.80;;;16.50;99.90;;;;;;5095002;28;20044;-77
2022/06/19 11:07:04;;;;;;;11.23;2.13;;;16.50;99.90;;;;;;5094646;28;20083;-81
2022/06/19 11:09:49;;;;;;;6.10;1.98;;;16.60;99.90;;;;;;5092590;28;20097;-78
2022/06/19 11:12:18;;;;;;;;;;;16.50;99.90;;;;;;5104523;28;20115;-80
2022/06/19 11:14:49;;;;;;;10.90;1.67;;;16.50;99.90;;;;;;5108221;28;19920;-77
2022/06/19 11:17:28;;;;;;;6.67;1.80;;;16.40;99.90;;;;;;5082579;27;20710;-77
2022/06/19 11:19:54;;;;;;;7.73;1.70;;;16.40;99.90;;;;;;5108014;27;20126;-78
2022/06/19 11:22:22;;;;;;;6.30;1.60;;;16.50;99.90;;;;;;5109165;28;20648;-78
2022/06/19 11:24:48;;;;;;;7.13;1.80;;;16.50;99.90;;;;;;5106030;28;20694;-70
2022/06/19 11:27:18;;;;;;;10.33;1.70;;;16.50;99.90;;;;;;5108446;28;20278;-70
2022/06/19 11:29:47;;;;;;;8.23;2.50;;;16.50;99.90;;;;;;5106313;28;20364;-78
2022/06/19 11:32:17;;;;;;;7.77;1.80;;;16.50;99.90;;;;;;5088612;28;20049;-70
2022/06/19 11:34:54;;;;;;;8.43;2.30;;;16.50;99.90;;;;;;5107533;28;20115;-78
2022/06/19 11:37:23;;;;;;;7.67;1.90;;;16.40;99.90;;;;;;5106956;28;20555;-77
2022/06/19 11:39:58;;;;;;;7.00;1.87;;;16.40;99.90;;;;;;5107587;28;20111;-72
2022/06/19 11:42:37;;;;;;;;;;;16.40;99.90;;;;;;5092090;27;20056;-78
2022/06/19 11:45:15;;;;;;;8.90;2.10;;;16.30;99.90;;;;;;5078191;28;19927;-78
2022/06/19 11:47:47;;;;;;;7.57;2.10;;;16.30;99.90;;;;;;5083070;28;20392;-77
2022/06/19 11:50:23;;;;;;;8.13;1.87;;;16.30;99.90;;;;;;5085670;28;20123;-78
2022/06/19 11:53:01;;;;;;;8.53;2.13;;;16.20;99.90;;;;;;5106452;28;20472;-77
2022/06/19 11:55:51;;;;;;;8.80;1.83;;;16.20;99.90;;;;;;5089569;28;20050;-78
2022/06/19 11:58:30;;;;;;;7.07;1.50;;;16.10;99.90;;;;;;5102702;28;20039;-77
2022/06/19 12:00:57;;;;;;;9.80;2.40;;;16.10;99.90;;;;;;5098824;28;20052;-78
2022/06/19 12:03:36;;;;;;;7.70;2.20;;;16.10;99.90;;;;;;5105850;28;20087;-77
2022/06/19 12:06:05;;;;;;;10.07;1.83;;;16.10;99.90;;;;;;5103681;28;20105;-79
2022/06/19 12:08:50;;;;;;;11.43;2.10;;;16.20;99.90;;;;;;5093714;28;20454;-80
2022/06/19 12:11:42;;;;;;;8.05;1.70;;;16.30;99.90;;;;;;5075401;28;20476;-79
2022/06/19 12:14:10;;;;;;;12.03;2.23;;;16.40;99.90;;;;;;5098355;28;20114;-79
2022/06/19 12:16:37;;;;;;;9.50;2.03;;;16.70;99.90;;;;;;5093945;28;20475;-78
2022/06/19 12:19:24;;;;;;;6.50;1.90;;;17.10;99.90;;;;;;5090701;28;20347;-79
2022/06/19 12:22:17;;;;;;;7.43;2.07;;;17.10;99.90;;;;;;5091978;28;20104;-80
2022/06/19 12:24:50;;;;;;;7.63;1.90;;;17.20;99.90;;;;;;5106303;28;20048;-78
2022/06/19 12:27:19;;;;;;;6.73;1.60;;;17.20;99.90;;;;;;5113962;28;20071;-80
2022/06/19 12:29:49;;;;;;;6.47;1.83;;;17.10;99.90;;;;;;5113359;28;20055;-71
2022/06/19 12:32:40;;;;;;;7.13;2.37;;;17.00;99.90;;;;;;5104587;28;20126;-78
2022/06/19 12:35:24;;;;;;;7.73;1.87;;;16.80;99.90;;;;;;5113840;28;20089;-70
2022/06/19 12:37:50;;;;;;;7.22;1.67;;;;;;;;;;5113672;28;20089;-72
2022/06/19 12:40:18;;;;;;;11.57;2.20;;;16.70;99.90;;;;;;5113056;28;20079;-71
2022/06/19 12:43:00;;;;;;;10.30;2.10;;;16.90;99.90;;;;;;5106957;28;20388;-80
2022/06/19 12:45:49;;;;;;;6.40;1.93;;;17.10;99.90;;;;;;5097944;28;20376;-78
2022/06/19 12:48:47;;;;;;;10.33;2.33;;;17.20;99.90;;;;;;5088750;28;20044;-76
2022/06/19 12:51:30;;;;;;;7.57;1.90;;;17.50;99.90;;;;;;5087457;28;20079;-80
2022/06/19 12:53:59;;;;;;;8.07;2.00;;;17.70;99.90;;;;;;5083264;28;20044;-78
2022/06/19 12:56:50;;;;;;;8.03;1.73;;;17.80;99.90;;;;;;5100342;28;20130;-78
2022/06/19 12:59:47;;;;;;;10.53;2.17;;;17.90;99.90;;;;;;5105170;28;20116;-78
2022/06/19 13:02:40;;;;;;;10.03;2.10;;;18.10;99.90;;;;;;5105534;28;20081;-69
2022/06/19 13:05:21;;;;;;;10.53;2.30;;;18.10;99.90;;;;;;5095129;28;20056;-70
2022/06/19 13:08:07;;;;;;;7.83;2.40;;;18.00;99.90;;;;;;5107980;28;20266;-70
2022/06/19 13:11:06;;;;;;;7.13;1.93;;;17.90;99.90;;;;;;5108197;28;20390;-70
2022/06/19 13:13:52;;;;;;;8.73;2.40;;;17.70;99.90;;;;;;5104098;28;20138;-71
2022/06/19 13:16:35;;;;;;;9.83;2.43;;;17.50;99.90;;;;;;5121692;28;20059;-70
2022/06/19 13:19:14;;;;;;;9.47;2.03;;;17.50;99.90;;;;;;5126289;28;20054;-70
2022/06/19 13:22:06;;;;;;;6.87;2.23;;;17.60;99.90;;;;;;5127234;28;20449;-70
2022/06/19 13:24:58;;;;;;;6.83;2.13;;;17.60;99.90;;;;;;5117643;27;20044;-70
2022/06/19 13:27:26;;;;;;;8.53;2.17;;;17.60;99.90;;;;;;5088005;28;20137;-70